sensor_id;sensor_type;location;lat;lon;timestamp;temperature;humidity
14014;DHT22;49110;52.584;13.408;2023-06-04T00:00:16;14.40;51.70
14014;DHT22;49110;52.584;13.408;2023-06-04T00:01:17;14.30;51.90
14014;DHT22;49110;52.584;13.408;2023-06-04T00:02:18;14.30;51.90
14014;DHT22;49110;52.584;13.408;2023-06-04T00:03:18;14.30;51.90
14014;DHT22;49110;52.584;13.408;2023-06-04T00:04:19;14.30;51.90
14014;DHT22;49110;52.584;13.408;2023-06-04T00:05:19;14.30;51.90
14014;DHT22;49110;52.584;13.408;2023-06-04T00:06:20;14.30;51.90
14014;DHT22;49110;52.584;13.408;2023-06-04T00:07:20;14.30;51.90
14014;DHT22;49110;52.584;13.408;2023-06-04T00:08:21;14.30;51.90
14014;DHT22;49110;52.584;13.408;2023-06-04T00:09:22;14.30;51.80
14014;DHT22;49110;52.584;13.408;2023-06-04T00:10:22;14.30;51.90
14014;DHT22;49110;52.584;13.408;2023-06-04T00:11:23;14.30;52.00
14014;DHT22;49110;52.584;13.408;2023-06-04T00:12:23;14.30;52.20
14014;DHT22;49110;52.584;13.408;2023-06-04T00:13:24;14.30;52.30
14014;DHT22;49110;52.584;13.408;2023-06-04T00:14:24;14.30;52.40
14014;DHT22;49110;52.584;13.408;2023-06-04T00:15:25;14.30;52.40
14014;DHT22;49110;52.584;13.408;2023-06-04T00:16:26;14.30;52.50
14014;DHT22;49110;52.584;13.408;2023-06-04T00:17:26;14.30;52.60
14014;DHT22;49110;52.584;13.408;2023-06-04T00:18:27;14.20;52.80
14014;DHT22;49110;52.584;13.408;2023-06-04T00:19:27;14.20;52.90
14014;DHT22;49110;52.584;13.408;2023-06-04T00:20:28;14.20;53.10
14014;DHT22;49110;52.584;13.408;2023-06-04T00:21:28;14.20;53.10
14014;DHT22;49110;52.584;13.408;2023-06-04T00:22:29;14.10;53.10
14014;DHT22;49110;52.584;13.408;2023-06-04T00:23:29;14.10;53.10
14014;DHT22;49110;52.584;13.408;2023-06-04T00:24:30;14.10;53.10
14014;DHT22;49110;52.584;13.408;2023-06-04T00:25:31;14.00;53.00
14014;DHT22;49110;52.584;13.408;2023-06-04T00:26:31;14.00;53.10
14014;DHT22;49110;52.584;13.408;2023-06-04T00:27:32;14.00;53.10
14014;DHT22;49110;52.584;13.408;2023-06-04T00:28:32;14.00;53.10
14014;DHT22;49110;52.584;13.408;2023-06-04T00:29:33;14.00;53.10
14014;DHT22;49110;52.584;13.408;2023-06-04T00:30:33;14.00;53.10
14014;DHT22;49110;52.584;13.408;2023-06-04T00:31:34;14.00;53.10
14014;DHT22;49110;52.584;13.408;2023-06-04T00:32:34;14.00;53.10
14014;DHT22;49110;52.584;13.408;2023-06-04T00:33:35;14.00;53.00
14014;DHT22;49110;52.584;13.408;2023-06-04T00:34:35;14.00;53.00
14014;DHT22;49110;52.584;13.408;2023-06-04T00:35:36;14.00;53.00
14014;DHT22;49110;52.584;13.408;2023-06-04T00:36:36;14.10;53.00
14014;DHT22;49110;52.584;13.408;2023-06-04T00:37:37;14.00;52.90
14014;DHT22;49110;52.584;13.408;2023-06-04T00:38:37;14.00;53.00
14014;DHT22;49110;52.584;13.408;2023-06-04T00:39:38;14.00;53.10
14014;DHT22;49110;52.584;13.408;2023-06-04T00:40:38;14.00;53.00
14014;DHT22;49110;52.584;13.408;2023-06-04T00:41:39;14.00;53.00
14014;DHT22;49110;52.584;13.408;2023-06-04T00:42:39;14.00;53.00
14014;DHT22;49110;52.584;13.408;2023-06-04T00:43:39;14.00;53.20
14014;DHT22;49110;52.584;13.408;2023-06-04T00:44:40;14.00;53.20
14014;DHT22;49110;52.584;13.408;2023-06-04T00:45:45;14.00;53.40
14014;DHT22;49110;52.584;13.408;2023-06-04T00:46:46;14.00;53.90
14014;DHT22;49110;52.584;13.408;2023-06-04T00:47:47;13.90;53.30
14014;DHT22;49110;52.584;13.408;2023-06-04T00:48:48;13.90;53.60
14014;DHT22;49110;52.584;13.408;2023-06-04T00:49:49;13.80;53.70
14014;DHT22;49110;52.584;13.408;2023-06-04T00:50:50;13.80;53.90
14014;DHT22;49110;52.584;13.408;2023-06-04T00:51:51;13.80;54.00
14014;DHT22;49110;52.584;13.408;2023-06-04T00:52:52;13.80;54.20
14014;DHT22;49110;52.584;13.408;2023-06-04T00:53:54;13.70;54.90
14014;DHT22;49110;52.584;13.408;2023-06-04T00:54:55;13.70;54.40
14014;DHT22;49110;52.584;13.408;2023-06-04T00:55:55;13.70;54.50
14014;DHT22;49110;52.584;13.408;2023-06-04T00:56:56;13.70;54.50
14014;DHT22;49110;52.584;13.408;2023-06-04T00:57:56;13.70;54.50
14014;DHT22;49110;52.584;13.408;2023-06-04T00:58:57;13.70;54.50
14014;DHT22;49110;52.584;13.408;2023-06-04T00:59:57;13.70;54.50
14014;DHT22;49110;52.584;13.408;2023-06-04T01:00:59;13.70;54.50
14014;DHT22;49110;52.584;13.408;2023-06-04T01:03:13;13.70;54.70
14014;DHT22;49110;52.584;13.408;2023-06-04T01:04:21;13.70;54.70
14014;DHT22;49110;52.584;13.408;2023-06-04T01:05:37;13.60;54.70
14014;DHT22;49110;52.584;13.408;2023-06-04T01:06:43;13.60;54.90
14014;DHT22;49110;52.584;13.408;2023-06-04T01:07:45;13.60;54.90
14014;DHT22;49110;52.584;13.408;2023-06-04T01:08:49;13.60;55.00
14014;DHT22;49110;52.584;13.408;2023-06-04T01:09:54;13.60;55.10
14014;DHT22;49110;52.584;13.408;2023-06-04T01:10:56;13.50;55.20
14014;DHT22;49110;52.584;13.408;2023-06-04T01:11:56;13.50;55.30
14014;DHT22;49110;52.584;13.408;2023-06-04T01:13:02;13.50;55.40
14014;DHT22;49110;52.584;13.408;2023-06-04T01:14:04;13.40;55.50
14014;DHT22;49110;52.584;13.408;2023-06-04T01:15:05;13.40;55.70
14014;DHT22;49110;52.584;13.408;2023-06-04T01:16:06;13.30;56.30
14014;DHT22;49110;52.584;13.408;2023-06-04T01:18:17;13.20;56.00
14014;DHT22;49110;52.584;13.408;2023-06-04T01:20:06;13.20;56.00
14014;DHT22;49110;52.584;13.408;2023-06-04T01:21:12;13.20;56.20
14014;DHT22;49110;52.584;13.408;2023-06-04T01:23:40;13.20;56.30
14014;DHT22;49110;52.584;13.408;2023-06-04T01:24:45;13.20;56.20
14014;DHT22;49110;52.584;13.408;2023-06-04T01:25:51;13.10;56.20
14014;DHT22;49110;52.584;13.408;2023-06-04T01:26:53;13.10;56.40
14014;DHT22;49110;52.584;13.408;2023-06-04T01:27:56;13.10;56.50
14014;DHT22;49110;52.584;13.408;2023-06-04T01:28:58;13.20;56.60
14014;DHT22;49110;52.584;13.408;2023-06-04T01:29:59;13.10;56.50
14014;DHT22;49110;52.584;13.408;2023-06-04T01:31:01;13.10;56.60
14014;DHT22;49110;52.584;13.408;2023-06-04T01:32:04;13.10;56.70
14014;DHT22;49110;52.584;13.408;2023-06-04T01:33:05;13.00;56.70
14014;DHT22;49110;52.584;13.408;2023-06-04T01:34:08;13.00;56.80
14014;DHT22;49110;52.584;13.408;2023-06-04T01:35:11;12.90;57.00
14014;DHT22;49110;52.584;13.408;2023-06-04T01:36:11;12.90;57.20
14014;DHT22;49110;52.584;13.408;2023-06-04T01:37:12;13.00;57.20
14014;DHT22;49110;52.584;13.408;2023-06-04T01:38:13;13.00;57.20
14014;DHT22;49110;52.584;13.408;2023-06-04T01:39:14;12.90;57.20
14014;DHT22;49110;52.584;13.408;2023-06-04T01:40:15;12.90;57.40
14014;DHT22;49110;52.584;13.408;2023-06-04T01:41:16;12.90;57.50
14014;DHT22;49110;52.584;13.408;2023-06-04T01:42:16;12.90;57.40
14014;DHT22;49110;52.584;13.408;2023-06-04T01:43:16;13.00;57.50
14014;DHT22;49110;52.584;13.408;2023-06-04T01:44:17;13.00;57.30
14014;DHT22;49110;52.584;13.408;2023-06-04T01:45:18;13.00;57.30
14014;DHT22;49110;52.584;13.408;2023-06-04T01:46:18;13.00;57.20
14014;DHT22;49110;52.584;13.408;2023-06-04T01:47:19;13.00;57.10
14014;DHT22;49110;52.584;13.408;2023-06-04T01:48:19;13.00;57.10
14014;DHT22;49110;52.584;13.408;2023-06-04T01:49:20;12.90;57.20
14014;DHT22;49110;52.584;13.408;2023-06-04T01:50:21;12.90;57.20
14014;DHT22;49110;52.584;13.408;2023-06-04T01:51:21;12.80;57.30
14014;DHT22;49110;52.584;13.408;2023-06-04T01:52:22;12.90;57.40
14014;DHT22;49110;52.584;13.408;2023-06-04T01:53:22;12.90;57.50
14014;DHT22;49110;52.584;13.408;2023-06-04T01:54:23;12.80;57.40
14014;DHT22;49110;52.584;13.408;2023-06-04T01:55:23;12.80;57.40
14014;DHT22;49110;52.584;13.408;2023-06-04T01:56:25;12.80;57.40
14014;DHT22;49110;52.584;13.408;2023-06-04T01:57:26;12.80;57.40
14014;DHT22;49110;52.584;13.408;2023-06-04T01:58:26;12.90;57.50
14014;DHT22;49110;52.584;13.408;2023-06-04T01:59:27;12.90;57.50
14014;DHT22;49110;52.584;13.408;2023-06-04T02:00:28;12.90;57.70
14014;DHT22;49110;52.584;13.408;2023-06-04T02:01:29;12.80;57.70
14014;DHT22;49110;52.584;13.408;2023-06-04T02:02:29;12.80;57.70
14014;DHT22;49110;52.584;13.408;2023-06-04T02:03:30;12.80;57.80
14014;DHT22;49110;52.584;13.408;2023-06-04T02:04:37;12.80;57.90
14014;DHT22;49110;52.584;13.408;2023-06-04T02:05:39;12.70;58.00
14014;DHT22;49110;52.584;13.408;2023-06-04T02:06:40;12.70;58.10
14014;DHT22;49110;52.584;13.408;2023-06-04T02:07:43;12.70;58.10
14014;DHT22;49110;52.584;13.408;2023-06-04T02:08:45;12.60;58.70
14014;DHT22;49110;52.584;13.408;2023-06-04T02:09:49;12.60;58.30
14014;DHT22;49110;52.584;13.408;2023-06-04T02:10:49;12.70;58.40
14014;DHT22;49110;52.584;13.408;2023-06-04T02:11:50;12.60;58.30
14014;DHT22;49110;52.584;13.408;2023-06-04T02:13:55;12.60;58.50
14014;DHT22;49110;52.584;13.408;2023-06-04T02:14:55;12.60;58.50
14014;DHT22;49110;52.584;13.408;2023-06-04T02:15:56;12.50;58.50
14014;DHT22;49110;52.584;13.408;2023-06-04T02:16:56;12.50;58.70
14014;DHT22;49110;52.584;13.408;2023-06-04T02:18:13;12.50;58.90
14014;DHT22;49110;52.584;13.408;2023-06-04T02:19:16;12.50;59.40
14014;DHT22;49110;52.584;13.408;2023-06-04T02:20:18;12.50;58.80
14014;DHT22;49110;52.584;13.408;2023-06-04T02:21:19;12.50;58.80
14014;DHT22;49110;52.584;13.408;2023-06-04T02:22:19;12.50;58.90
14014;DHT22;49110;52.584;13.408;2023-06-04T02:23:20;12.50;59.10
14014;DHT22;49110;52.584;13.408;2023-06-04T02:24:21;12.40;59.00
14014;DHT22;49110;52.584;13.408;2023-06-04T02:25:23;12.40;59.10
14014;DHT22;49110;52.584;13.408;2023-06-04T02:26:23;12.50;59.10
14014;DHT22;49110;52.584;13.408;2023-06-04T02:27:25;12.50;59.20
14014;DHT22;49110;52.584;13.408;2023-06-04T02:28:25;12.40;59.20
14014;DHT22;49110;52.584;13.408;2023-06-04T02:29:26;12.50;59.20
14014;DHT22;49110;52.584;13.408;2023-06-04T02:30:26;12.50;59.30
14014;DHT22;49110;52.584;13.408;2023-06-04T02:31:27;12.50;59.20
14014;DHT22;49110;52.584;13.408;2023-06-04T02:32:27;12.50;59.30
14014;DHT22;49110;52.584;13.408;2023-06-04T02:33:29;12.40;59.30
14014;DHT22;49110;52.584;13.408;2023-06-04T02:34:30;12.40;59.50
14014;DHT22;49110;52.584;13.408;2023-06-04T02:35:31;12.40;59.60
14014;DHT22;49110;52.584;13.408;2023-06-04T02:36:32;12.30;59.60
14014;DHT22;49110;52.584;13.408;2023-06-04T02:37:32;12.30;59.80
14014;DHT22;49110;52.584;13.408;2023-06-04T02:38:33;12.30;59.90
14014;DHT22;49110;52.584;13.408;2023-06-04T02:39:33;12.30;59.90
14014;DHT22;49110;52.584;13.408;2023-06-04T02:40:34;12.30;59.90
14014;DHT22;49110;52.584;13.408;2023-06-04T02:41:35;12.30;60.00
14014;DHT22;49110;52.584;13.408;2023-06-04T02:42:35;12.30;59.90
14014;DHT22;49110;52.584;13.408;2023-06-04T02:43:36;12.30;60.00
14014;DHT22;49110;52.584;13.408;2023-06-04T02:44:37;12.30;60.10
14014;DHT22;49110;52.584;13.408;2023-06-04T02:45:37;12.20;60.20
14014;DHT22;49110;52.584;13.408;2023-06-04T02:46:38;12.10;60.10
14014;DHT22;49110;52.584;13.408;2023-06-04T02:47:39;12.20;60.30
14014;DHT22;49110;52.584;13.408;2023-06-04T02:48:39;12.20;60.30
14014;DHT22;49110;52.584;13.408;2023-06-04T02:49:40;12.20;60.40
14014;DHT22;49110;52.584;13.408;2023-06-04T02:50:40;12.20;60.40
14014;DHT22;49110;52.584;13.408;2023-06-04T02:51:43;12.20;60.50
14014;DHT22;49110;52.584;13.408;2023-06-04T02:52:43;12.20;60.40
14014;DHT22;49110;52.584;13.408;2023-06-04T02:53:44;12.20;60.40
14014;DHT22;49110;52.584;13.408;2023-06-04T02:54:45;12.20;60.30
14014;DHT22;49110;52.584;13.408;2023-06-04T02:55:46;12.20;60.50
14014;DHT22;49110;52.584;13.408;2023-06-04T02:56:47;12.20;60.50
14014;DHT22;49110;52.584;13.408;2023-06-04T02:57:49;12.20;60.60
14014;DHT22;49110;52.584;13.408;2023-06-04T02:58:55;12.10;60.50
14014;DHT22;49110;52.584;13.408;2023-06-04T02:59:56;12.20;61.60
14014;DHT22;49110;52.584;13.408;2023-06-04T03:00:57;12.20;61.00
14014;DHT22;49110;52.584;13.408;2023-06-04T03:01:57;12.10;61.10
14014;DHT22;49110;52.584;13.408;2023-06-04T03:02:58;12.10;61.00
14014;DHT22;49110;52.584;13.408;2023-06-04T03:04:02;12.10;61.10
14014;DHT22;49110;52.584;13.408;2023-06-04T03:05:05;12.20;61.10
14014;DHT22;49110;52.584;13.408;2023-06-04T03:06:06;12.10;61.10
14014;DHT22;49110;52.584;13.408;2023-06-04T03:07:07;12.10;61.30
14014;DHT22;49110;52.584;13.408;2023-06-04T03:08:08;12.10;61.40
14014;DHT22;49110;52.584;13.408;2023-06-04T03:09:08;12.10;61.40
14014;DHT22;49110;52.584;13.408;2023-06-04T03:10:10;12.10;61.50
14014;DHT22;49110;52.584;13.408;2023-06-04T03:11:11;12.10;61.50
14014;DHT22;49110;52.584;13.408;2023-06-04T03:12:12;12.10;61.40
14014;DHT22;49110;52.584;13.408;2023-06-04T03:13:12;12.10;61.50
14014;DHT22;49110;52.584;13.408;2023-06-04T03:14:13;12.10;61.50
14014;DHT22;49110;52.584;13.408;2023-06-04T03:15:13;12.00;61.50
14014;DHT22;49110;52.584;13.408;2023-06-04T03:16:14;12.10;61.70
14014;DHT22;49110;52.584;13.408;2023-06-04T03:17:15;12.10;61.70
14014;DHT22;49110;52.584;13.408;2023-06-04T03:18:15;12.10;61.80
14014;DHT22;49110;52.584;13.408;2023-06-04T03:19:16;12.20;61.60
14014;DHT22;49110;52.584;13.408;2023-06-04T03:20:17;12.20;61.60
14014;DHT22;49110;52.584;13.408;2023-06-04T03:21:17;12.20;61.60
14014;DHT22;49110;52.584;13.408;2023-06-04T03:22:18;12.20;61.60
14014;DHT22;49110;52.584;13.408;2023-06-04T03:23:19;12.20;61.50
14014;DHT22;49110;52.584;13.408;2023-06-04T03:24:20;12.30;61.50
14014;DHT22;49110;52.584;13.408;2023-06-04T03:25:20;12.30;61.40
14014;DHT22;49110;52.584;13.408;2023-06-04T03:26:21;12.30;61.30
14014;DHT22;49110;52.584;13.408;2023-06-04T03:27:22;12.30;61.20
14014;DHT22;49110;52.584;13.408;2023-06-04T03:28:22;12.40;61.20
14014;DHT22;49110;52.584;13.408;2023-06-04T03:29:23;12.30;61.20
14014;DHT22;49110;52.584;13.408;2023-06-04T03:30:23;12.30;61.30
14014;DHT22;49110;52.584;13.408;2023-06-04T03:31:24;12.30;61.40
14014;DHT22;49110;52.584;13.408;2023-06-04T03:32:24;12.30;61.50
14014;DHT22;49110;52.584;13.408;2023-06-04T03:33:25;12.30;61.50
14014;DHT22;49110;52.584;13.408;2023-06-04T03:34:26;12.20;61.40
14014;DHT22;49110;52.584;13.408;2023-06-04T03:35:27;12.20;61.50
14014;DHT22;49110;52.584;13.408;2023-06-04T03:36:29;12.30;61.70
14014;DHT22;49110;52.584;13.408;2023-06-04T03:37:31;12.20;61.80
14014;DHT22;49110;52.584;13.408;2023-06-04T03:38:33;12.20;61.80
14014;DHT22;49110;52.584;13.408;2023-06-04T03:39:33;12.20;61.80
14014;DHT22;49110;52.584;13.408;2023-06-04T03:40:34;12.20;61.90
14014;DHT22;49110;52.584;13.408;2023-06-04T03:41:34;12.10;61.80
14014;DHT22;49110;52.584;13.408;2023-06-04T03:42:35;12.20;62.70
14014;DHT22;49110;52.584;13.408;2023-06-04T03:43:35;12.20;62.10
14014;DHT22;49110;52.584;13.408;2023-06-04T03:44:36;12.20;62.20
14014;DHT22;49110;52.584;13.408;2023-06-04T03:45:36;12.30;62.40
14014;DHT22;49110;52.584;13.408;2023-06-04T03:46:37;12.30;62.40
14014;DHT22;49110;52.584;13.408;2023-06-04T03:47:38;12.30;62.50
14014;DHT22;49110;52.584;13.408;2023-06-04T03:48:41;12.30;62.80
14014;DHT22;49110;52.584;13.408;2023-06-04T03:49:42;12.30;62.90
14014;DHT22;49110;52.584;13.408;2023-06-04T03:50:42;12.30;62.90
14014;DHT22;49110;52.584;13.408;2023-06-04T03:51:46;12.30;62.90
14014;DHT22;49110;52.584;13.408;2023-06-04T03:52:48;12.30;62.90
14014;DHT22;49110;52.584;13.408;2023-06-04T03:53:49;12.30;62.90
14014;DHT22;49110;52.584;13.408;2023-06-04T03:54:50;12.30;62.80
14014;DHT22;49110;52.584;13.408;2023-06-04T03:55:50;12.30;62.90
14014;DHT22;49110;52.584;13.408;2023-06-04T03:56:51;12.30;63.30
14014;DHT22;49110;52.584;13.408;2023-06-04T03:57:52;12.30;63.40
14014;DHT22;49110;52.584;13.408;2023-06-04T03:58:53;12.30;63.50
14014;DHT22;49110;52.584;13.408;2023-06-04T03:59:53;12.30;63.80
14014;DHT22;49110;52.584;13.408;2023-06-04T04:00:54;12.30;63.60
14014;DHT22;49110;52.584;13.408;2023-06-04T04:01:55;12.30;63.60
14014;DHT22;49110;52.584;13.408;2023-06-04T04:02:55;12.40;63.70
14014;DHT22;49110;52.584;13.408;2023-06-04T04:03:56;12.40;63.80
14014;DHT22;49110;52.584;13.408;2023-06-04T04:04:57;12.40;63.80
14014;DHT22;49110;52.584;13.408;2023-06-04T04:05:57;12.40;63.70
14014;DHT22;49110;52.584;13.408;2023-06-04T04:06:58;12.40;63.50
14014;DHT22;49110;52.584;13.408;2023-06-04T04:08:01;12.40;63.00
14014;DHT22;49110;52.584;13.408;2023-06-04T04:09:03;12.50;63.10
14014;DHT22;49110;52.584;13.408;2023-06-04T04:10:04;12.40;63.00
14014;DHT22;49110;52.584;13.408;2023-06-04T04:11:06;12.40;63.00
14014;DHT22;49110;52.584;13.408;2023-06-04T04:12:07;12.50;63.10
14014;DHT22;49110;52.584;13.408;2023-06-04T04:13:08;12.50;63.10
14014;DHT22;49110;52.584;13.408;2023-06-04T04:14:09;12.50;63.00
14014;DHT22;49110;52.584;13.408;2023-06-04T04:15:09;12.60;63.20
14014;DHT22;49110;52.584;13.408;2023-06-04T04:16:11;12.60;63.20
14014;DHT22;49110;52.584;13.408;2023-06-04T04:17:12;12.60;63.50
14014;DHT22;49110;52.584;13.408;2023-06-04T04:18:13;12.50;63.10
14014;DHT22;49110;52.584;13.408;2023-06-04T04:19:13;12.50;62.80
14014;DHT22;49110;52.584;13.408;2023-06-04T04:20:15;12.40;62.90
14014;DHT22;49110;52.584;13.408;2023-06-04T04:21:17;12.40;63.00
14014;DHT22;49110;52.584;13.408;2023-06-04T04:22:18;12.50;63.10
14014;DHT22;49110;52.584;13.408;2023-06-04T04:23:19;12.50;63.30
14014;DHT22;49110;52.584;13.408;2023-06-04T04:24:27;12.40;62.90
14014;DHT22;49110;52.584;13.408;2023-06-04T04:25:28;12.30;62.60
14014;DHT22;49110;52.584;13.408;2023-06-04T04:26:33;12.20;62.70
14014;DHT22;49110;52.584;13.408;2023-06-04T04:27:34;12.20;62.80
14014;DHT22;49110;52.584;13.408;2023-06-04T04:28:39;12.20;63.20
14014;DHT22;49110;52.584;13.408;2023-06-04T04:29:40;12.30;63.20
14014;DHT22;49110;52.584;13.408;2023-06-04T04:30:43;12.40;63.30
14014;DHT22;49110;52.584;13.408;2023-06-04T04:31:44;12.50;63.50
14014;DHT22;49110;52.584;13.408;2023-06-04T04:32:48;12.50;63.10
14014;DHT22;49110;52.584;13.408;2023-06-04T04:33:50;12.60;63.20
14014;DHT22;49110;52.584;13.408;2023-06-04T04:34:53;12.60;63.20
14014;DHT22;49110;52.584;13.408;2023-06-04T04:35:55;12.70;63.30
14014;DHT22;49110;52.584;13.408;2023-06-04T04:36:59;12.70;62.90
14014;DHT22;49110;52.584;13.408;2023-06-04T04:38:00;12.80;63.00
14014;DHT22;49110;52.584;13.408;2023-06-04T04:39:04;12.80;62.90
14014;DHT22;49110;52.584;13.408;2023-06-04T04:40:06;12.80;62.70
14014;DHT22;49110;52.584;13.408;2023-06-04T04:41:09;12.80;62.70
14014;DHT22;49110;52.584;13.408;2023-06-04T04:42:09;12.80;62.60
14014;DHT22;49110;52.584;13.408;2023-06-04T04:43:10;12.90;63.50
14014;DHT22;49110;52.584;13.408;2023-06-04T04:44:11;12.80;63.60
14014;DHT22;49110;52.584;13.408;2023-06-04T04:45:12;12.90;63.50
14014;DHT22;49110;52.584;13.408;2023-06-04T04:46:13;12.90;63.50
14014;DHT22;49110;52.584;13.408;2023-06-04T04:47:15;12.90;63.50
14014;DHT22;49110;52.584;13.408;2023-06-04T04:48:15;13.00;63.60
14014;DHT22;49110;52.584;13.408;2023-06-04T04:49:16;13.00;63.00
14014;DHT22;49110;52.584;13.408;2023-06-04T04:50:17;13.10;62.90
14014;DHT22;49110;52.584;13.408;2023-06-04T04:51:17;13.10;62.70
14014;DHT22;49110;52.584;13.408;2023-06-04T04:52:18;13.10;62.70
14014;DHT22;49110;52.584;13.408;2023-06-04T04:53:19;13.10;62.90
14014;DHT22;49110;52.584;13.408;2023-06-04T04:54:20;13.10;63.00
14014;DHT22;49110;52.584;13.408;2023-06-04T04:55:20;13.10;63.20
14014;DHT22;49110;52.584;13.408;2023-06-04T04:56:21;13.20;63.30
14014;DHT22;49110;52.584;13.408;2023-06-04T04:57:22;13.10;63.50
14014;DHT22;49110;52.584;13.408;2023-06-04T04:58:23;13.10;63.60
14014;DHT22;49110;52.584;13.408;2023-06-04T04:59:24;13.10;63.50
14014;DHT22;49110;52.584;13.408;2023-06-04T05:00:24;13.20;63.80
14014;DHT22;49110;52.584;13.408;2023-06-04T05:01:25;13.20;63.80
14014;DHT22;49110;52.584;13.408;2023-06-04T05:02:25;13.20;63.80
14014;DHT22;49110;52.584;13.408;2023-06-04T05:03:26;13.20;63.80
14014;DHT22;49110;52.584;13.408;2023-06-04T05:04:26;13.20;63.50
14014;DHT22;49110;52.584;13.408;2023-06-04T05:05:27;13.30;63.40
14014;DHT22;49110;52.584;13.408;2023-06-04T05:06:27;13.30;63.70
14014;DHT22;49110;52.584;13.408;2023-06-04T05:07:28;13.40;64.00
14014;DHT22;49110;52.584;13.408;2023-06-04T05:08:28;13.30;63.90
14014;DHT22;49110;52.584;13.408;2023-06-04T05:09:29;13.40;63.80
14014;DHT22;49110;52.584;13.408;2023-06-04T05:10:30;13.40;64.00
14014;DHT22;49110;52.584;13.408;2023-06-04T05:11:30;13.40;64.00
14014;DHT22;49110;52.584;13.408;2023-06-04T05:12:31;13.40;64.00
14014;DHT22;49110;52.584;13.408;2023-06-04T05:13:32;13.40;63.70
14014;DHT22;49110;52.584;13.408;2023-06-04T05:14:33;13.50;63.60
14014;DHT22;49110;52.584;13.408;2023-06-04T05:15:35;13.50;63.50
14014;DHT22;49110;52.584;13.408;2023-06-04T05:16:36;13.50;62.60
14014;DHT22;49110;52.584;13.408;2023-06-04T05:17:38;13.60;62.40
14014;DHT22;49110;52.584;13.408;2023-06-04T05:18:41;13.60;62.10
14014;DHT22;49110;52.584;13.408;2023-06-04T05:19:44;13.60;62.20
14014;DHT22;49110;52.584;13.408;2023-06-04T05:20:46;13.70;62.40
14014;DHT22;49110;52.584;13.408;2023-06-04T05:21:47;13.80;62.10
14014;DHT22;49110;52.584;13.408;2023-06-04T05:22:48;13.80;62.00
14014;DHT22;49110;52.584;13.408;2023-06-04T05:23:49;13.80;61.70
14014;DHT22;49110;52.584;13.408;2023-06-04T05:24:50;13.90;61.80
14014;DHT22;49110;52.584;13.408;2023-06-04T05:25:52;13.90;61.90
14014;DHT22;49110;52.584;13.408;2023-06-04T05:26:52;13.90;61.70
14014;DHT22;49110;52.584;13.408;2023-06-04T05:27:53;14.00;61.30
14014;DHT22;49110;52.584;13.408;2023-06-04T05:28:54;14.10;61.40
14014;DHT22;49110;52.584;13.408;2023-06-04T05:29:56;14.10;61.40
14014;DHT22;49110;52.584;13.408;2023-06-04T05:30:56;14.10;61.40
14014;DHT22;49110;52.584;13.408;2023-06-04T05:31:59;14.10;61.60
14014;DHT22;49110;52.584;13.408;2023-06-04T05:32:59;14.10;61.40
14014;DHT22;49110;52.584;13.408;2023-06-04T05:34:00;14.10;61.00
14014;DHT22;49110;52.584;13.408;2023-06-04T05:35:01;14.20;61.00
14014;DHT22;49110;52.584;13.408;2023-06-04T05:36:04;14.20;61.00
14014;DHT22;49110;52.584;13.408;2023-06-04T05:37:05;14.30;61.30
14014;DHT22;49110;52.584;13.408;2023-06-04T05:38:08;14.20;61.40
14014;DHT22;49110;52.584;13.408;2023-06-04T05:39:09;14.20;61.00
14014;DHT22;49110;52.584;13.408;2023-06-04T05:40:10;14.30;60.90
14014;DHT22;49110;52.584;13.408;2023-06-04T05:41:11;14.30;60.20
14014;DHT22;49110;52.584;13.408;2023-06-04T05:42:12;14.30;60.30
14014;DHT22;49110;52.584;13.408;2023-06-04T05:43:14;14.40;60.70
14014;DHT22;49110;52.584;13.408;2023-06-04T05:44:14;14.40;60.50
14014;DHT22;49110;52.584;13.408;2023-06-04T05:45:15;14.40;59.90
14014;DHT22;49110;52.584;13.408;2023-06-04T05:46:16;14.40;60.10
14014;DHT22;49110;52.584;13.408;2023-06-04T05:47:16;14.50;60.00
14014;DHT22;49110;52.584;13.408;2023-06-04T05:48:17;14.50;60.60
14014;DHT22;49110;52.584;13.408;2023-06-04T05:49:17;14.60;60.20
14014;DHT22;49110;52.584;13.408;2023-06-04T05:50:19;14.60;60.20
14014;DHT22;49110;52.584;13.408;2023-06-04T05:51:20;14.70;60.20
14014;DHT22;49110;52.584;13.408;2023-06-04T05:52:21;14.70;60.30
14014;DHT22;49110;52.584;13.408;2023-06-04T05:53:21;14.80;60.10
14014;DHT22;49110;52.584;13.408;2023-06-04T05:54:23;14.80;59.40
14014;DHT22;49110;52.584;13.408;2023-06-04T05:55:23;14.80;59.60
14014;DHT22;49110;52.584;13.408;2023-06-04T05:56:25;14.80;59.70
14014;DHT22;49110;52.584;13.408;2023-06-04T05:57:26;14.90;59.80
14014;DHT22;49110;52.584;13.408;2023-06-04T05:58:27;14.90;59.70
14014;DHT22;49110;52.584;13.408;2023-06-04T05:59:27;14.80;60.80
14014;DHT22;49110;52.584;13.408;2023-06-04T06:00:28;15.00;60.60
14014;DHT22;49110;52.584;13.408;2023-06-04T06:01:28;15.00;59.40
14014;DHT22;49110;52.584;13.408;2023-06-04T06:02:29;15.10;59.40
14014;DHT22;49110;52.584;13.408;2023-06-04T06:03:32;15.10;59.40
14014;DHT22;49110;52.584;13.408;2023-06-04T06:04:33;15.20;59.50
14014;DHT22;49110;52.584;13.408;2023-06-04T06:05:33;15.20;59.30
14014;DHT22;49110;52.584;13.408;2023-06-04T06:06:35;15.30;59.00
14014;DHT22;49110;52.584;13.408;2023-06-04T06:07:35;15.20;59.20
14014;DHT22;49110;52.584;13.408;2023-06-04T06:08:36;15.30;60.40
14014;DHT22;49110;52.584;13.408;2023-06-04T06:09:37;15.30;59.40
14014;DHT22;49110;52.584;13.408;2023-06-04T06:10:38;15.30;59.50
14014;DHT22;49110;52.584;13.408;2023-06-04T06:11:38;15.40;59.30
14014;DHT22;49110;52.584;13.408;2023-06-04T06:12:39;15.40;58.50
14014;DHT22;49110;52.584;13.408;2023-06-04T06:13:40;15.40;58.30
14014;DHT22;49110;52.584;13.408;2023-06-04T06:14:40;15.50;58.50
14014;DHT22;49110;52.584;13.408;2023-06-04T06:15:41;15.50;58.50
14014;DHT22;49110;52.584;13.408;2023-06-04T06:16:42;15.60;58.90
14014;DHT22;49110;52.584;13.408;2023-06-04T06:17:43;15.70;59.00
14014;DHT22;49110;52.584;13.408;2023-06-04T06:18:43;15.70;58.60
14014;DHT22;49110;52.584;13.408;2023-06-04T06:19:44;15.80;58.60
14014;DHT22;49110;52.584;13.408;2023-06-04T06:20:45;15.80;58.40
14014;DHT22;49110;52.584;13.408;2023-06-04T06:21:45;15.80;58.50
14014;DHT22;49110;52.584;13.408;2023-06-04T06:22:46;15.90;58.80
14014;DHT22;49110;52.584;13.408;2023-06-04T06:23:46;15.90;58.50
14014;DHT22;49110;52.584;13.408;2023-06-04T06:24:47;15.90;58.90
14014;DHT22;49110;52.584;13.408;2023-06-04T06:25:49;15.90;58.50